Time;durP1;ratioP1;P1;durP2;ratioP2;P2;SDS_P1;SDS_P2;PMS_P1;PMS_P2;Temp;Humidity;BMP_temperature;BMP_pressure;BME280_temperature;BME280_humidity;BME280_pressure;Samples;Min_cycle;Max_cycle;Signal;HPM_P1;HPM_P2
2021/03/29 00:01:13;;;;;;;12.70;3.95;;;11.30;45.30;;;;;;5033482;28;20175;-66
2021/03/29 00:03:39;;;;;;;10.40;3.97;;;11.20;99.90;;;;;;5036694;28;20212;-62
2021/03/29 00:06:04;;;;;;;6.13;3.70;;;11.30;99.90;;;;;;5036872;28;20685;-66
2021/03/29 00:08:31;;;;;;;11.00;3.57;;;11.30;1.00;;;;;;5037456;28;20206;-63
2021/03/29 00:10:58;;;;;;;6.85;5.80;;;11.30;49.30;;;;;;5037121;28;20177;-66
2021/03/29 00:13:27;;;;;;;7.43;3.10;;;11.30;99.90;;;;;;5036525;28;20178;-62
2021/03/29 00:15:54;;;;;;;7.22;3.75;;;11.20;99.90;;;;;;5036875;28;20187;-66
2021/03/29 00:18:21;;;;;;;7.25;3.75;;;11.30;99.90;;;;;;5035850;28;20210;-66
2021/03/29 00:20:51;;;;;;;11.02;3.45;;;11.30;1.00;;;;;;5036751;28;20181;-63
2021/03/29 00:23:17;;;;;;;3.70;3.35;;;11.30;14.80;;;;;;5036376;28;20276;-62
2021/03/29 00:25:43;;;;;;;7.15;3.45;;;11.30;99.90;;;;;;5036592;28;20273;-66
2021/03/29 00:28:08;;;;;;;11.23;4.00;;;11.40;99.90;;;;;;5036380;28;20205;-62
2021/03/29 00:30:40;;;;;;;12.10;3.10;;;11.40;1.00;;;;;;5036391;28;20178;-62
2021/03/29 00:33:07;;;;;;;6.32;3.45;;;11.30;1.00;;;;;;5036086;28;20563;-66
2021/03/29 00:35:35;;;;;;;14.32;4.10;;;11.20;8.40;;;;;;5036646;28;20182;-66
2021/03/29 00:38:03;;;;;;;8.05;3.45;;;11.20;99.90;;;;;;5036258;28;20651;-66
2021/03/29 00:40:29;;;;;;;12.25;4.15;;;11.20;99.90;;;;;;5036474;28;20182;-66
2021/03/29 00:43:00;;;;;;;7.82;3.60;;;11.30;1.00;;;;;;5036457;28;20259;-67
2021/03/29 00:45:27;;;;;;;6.95;3.75;;;11.40;1.00;;;;;;5036040;28;20169;-66
2021/03/29 00:47:54;;;;;;;4.35;3.03;;;11.30;99.90;;;;;;5036170;28;20635;-61
2021/03/29 00:50:35;;;;;;;10.25;3.75;;;11.30;1.00;;;;;;5035913;28;20178;-66
2021/03/29 00:53:02;;;;;;;7.05;4.25;;;11.20;99.90;;;;;;5034935;28;20194;-66
2021/03/29 00:55:28;;;;;;;7.50;3.38;;;11.30;99.90;;;;;;5035870;28;20189;-66
2021/03/29 00:57:54;;;;;;;7.28;3.80;;;11.30;99.90;;;;;;5035017;28;20177;-62
2021/03/29 01:00:30;;;;;;;4.45;3.53;;;11.40;1.00;;;;;;5035703;28;20174;-62
2021/03/29 01:02:56;;;;;;;5.80;3.55;;;11.40;99.90;;;;;;5035882;28;20669;-62
2021/03/29 01:05:22;;;;;;;8.33;4.27;;;11.30;99.90;;;;;;5034863;28;20182;-62
2021/03/29 01:07:52;;;;;;;5.67;4.03;;;11.30;99.90;;;;;;5035861;28;20194;-62
2021/03/29 01:10:17;;;;;;;4.93;3.40;;;11.30;85.90;;;;;;5036186;28;20424;-66
2021/03/29 01:12:46;;;;;;;5.53;4.33;;;11.30;99.90;;;;;;5034795;28;20177;-62
2021/03/29 01:15:17;;;;;;;7.10;4.15;;;11.40;1.00;;;;;;5034569;28;20542;-66
2021/03/29 01:17:45;;;;;;;6.82;3.72;;;11.50;1.00;;;;;;5035785;28;20174;-66
2021/03/29 01:20:37;;;;;;;4.97;4.25;;;11.60;99.90;;;;;;5034738;28;20190;-66
2021/03/29 01:23:04;;;;;;;4.75;3.85;;;11.70;99.90;;;;;;5035484;28;20198;-66
2021/03/29 01:25:44;;;;;;;8.93;4.72;;;11.50;99.90;;;;;;5035409;28;20296;-66
2021/03/29 01:28:14;;;;;;;6.15;4.65;;;11.50;99.90;;;;;;5035675;28;20174;-66
2021/03/29 01:30:42;;;;;;;7.18;4.38;;;11.30;99.90;;;;;;5035394;28;20182;-65
2021/03/29 01:33:09;;;;;;;7.63;4.70;;;11.20;1.00;;;;;;5035055;28;20654;-66
2021/03/29 01:35:46;;;;;;;12.10;4.70;;;11.40;99.90;;;;;;5035246;28;20177;-66
2021/03/29 01:38:13;;;;;;;7.70;4.00;;;11.40;1.00;;;;;;5035358;28;20209;-66
2021/03/29 01:40:40;;;;;;;6.65;4.20;;;11.30;64.50;;;;;;5035745;28;20488;-66
2021/03/29 01:43:07;;;;;;;7.93;4.55;;;11.30;20.90;;;;;;5034964;28;20657;-66
2021/03/29 01:45:35;;;;;;;11.32;4.10;;;11.40;1.00;;;;;;5035281;28;20612;-66
2021/03/29 01:48:05;;;;;;;11.90;4.00;;;11.30;1.00;;;;;;5035090;28;20673;-66
2021/03/29 01:50:34;;;;;;;5.05;4.20;;;11.30;1.00;;;;;;5035074;28;20277;-66
2021/03/29 01:53:03;;;;;;;5.38;3.80;;;11.20;1.00;;;;;;5034946;28;20268;-66
2021/03/29 01:55:31;;;;;;;13.43;4.30;;;11.20;1.00;;;;;;5033817;28;20192;-66
2021/03/29 01:57:57;;;;;;;9.63;4.75;;;11.30;1.00;;;;;;5035035;28;20182;-66
2021/03/29 02:00:29;;;;;;;7.10;4.47;;;11.30;1.00;;;;;;5034737;28;20205;-66
2021/03/29 02:02:55;;;;;;;5.03;3.83;;;11.30;99.90;;;;;;5034546;28;20666;-62
2021/03/29 02:05:22;;;;;;;12.10;4.77;;;11.30;99.90;;;;;;5034623;28;20210;-62
2021/03/29 02:07:48;;;;;;;5.47;4.35;;;11.40;99.90;;;;;;5034566;28;20487;-62
2021/03/29 02:10:24;;;;;;;7.40;4.40;;;11.40;99.90;;;;;;5034538;28;20206;-62
2021/03/29 02:12:51;;;;;;;7.25;4.82;;;11.40;56.50;;;;;;5034479;28;20436;-62
2021/03/29 02:15:25;;;;;;;8.35;4.50;;;11.20;1.00;;;;;;5034161;28;20216;-62
2021/03/29 02:17:58;;;;;;;5.28;4.10;;;11.10;99.90;;;;;;5034459;28;20639;-62
2021/03/29 02:20:26;;;;;;;8.90;4.50;;;11.20;1.00;;;;;;5034349;28;20178;-62
2021/03/29 02:22:54;;;;;;;7.25;4.32;;;11.20;1.00;;;;;;5034109;28;20701;-62
2021/03/29 02:25:23;;;;;;;8.52;4.43;;;11.30;1.00;;;;;;5033469;28;20568;-62
2021/03/29 02:27:51;;;;;;;8.60;4.60;;;11.20;1.00;;;;;;5034095;28;20517;-62
2021/03/29 02:30:21;;;;;;;9.52;4.45;;;11.20;99.90;;;;;;5034429;28;20181;-62
2021/03/29 02:32:48;;;;;;;6.75;4.63;;;11.10;99.90;;;;;;5034802;28;20275;-62
2021/03/29 02:35:15;;;;;;;7.90;4.43;;;11.20;99.90;;;;;;5033969;28;20186;-62
2021/03/29 02:37:48;;;;;;;6.50;4.20;;;11.20;99.90;;;;;;5034174;28;20184;-62
2021/03/29 02:40:15;;;;;;;12.45;4.78;;;11.20;99.90;;;;;;5034037;28;20611;-62
2021/03/29 02:42:41;;;;;;;5.88;4.05;;;11.30;1.00;;;;;;5033914;28;20209;-66
2021/03/29 02:45:12;;;;;;;8.07;4.03;;;11.20;1.00;;;;;;5033900;28;20188;-62
2021/03/29 02:47:40;;;;;;;9.00;5.25;;;11.20;1.00;;;;;;5033936;28;20531;-62
2021/03/29 02:50:21;;;;;;;7.10;5.07;;;11.30;1.00;;;;;;5033990;28;20261;-62
2021/03/29 02:52:51;;;;;;;15.05;5.32;;;11.30;1.00;;;;;;5033831;28;20242;-62
2021/03/29 02:55:18;;;;;;;6.57;4.90;;;11.20;1.00;;;;;;5033701;28;20657;-62
2021/03/29 02:57:46;;;;;;;8.63;4.45;;;11.20;1.00;;;;;;5033925;28;20189;-62
2021/03/29 03:00:18;;;;;;;9.25;5.00;;;11.10;1.00;;;;;;5033733;28;20183;-62
2021/03/29 03:02:45;;;;;;;7.03;4.35;;;11.20;1.00;;;;;;5033876;28;20198;-66
2021/03/29 03:05:13;;;;;;;5.80;3.45;;;11.10;1.00;;;;;;5033292;28;20236;-66
2021/03/29 03:07:39;;;;;;;6.85;4.55;;;11.10;1.00;;;;;;5033813;28;20657;-62
2021/03/29 03:10:07;;;;;;;6.05;4.47;;;11.10;1.00;;;;;;5033942;28;20184;-66
2021/03/29 03:12:34;;;;;;;8.27;5.10;;;11.20;1.00;;;;;;5033974;28;20182;-66
2021/03/29 03:15:00;;;;;;;10.85;5.30;;;11.20;1.00;;;;;;5033700;28;20246;-66
2021/03/29 03:17:26;;;;;;;7.23;4.20;;;11.20;1.00;;;;;;5033770;28;20217;-66
2021/03/29 03:19:51;;;;;;;6.30;3.73;;;11.40;99.90;;;;;;5033829;28;20433;-65
2021/03/29 03:22:17;;;;;;;8.27;4.53;;;11.30;99.90;;;;;;5031850;28;21095;-66
2021/03/29 03:24:42;;;;;;;5.30;3.90;;;11.30;96.90;;;;;;5033200;28;20516;-62
2021/03/29 03:27:10;;;;;;;10.10;5.47;;;11.30;31.40;;;;;;5033352;28;20174;-62
2021/03/29 03:29:42;;;;;;;8.07;4.30;;;11.30;94.10;;;;;;5033295;28;20249;-62
2021/03/29 03:32:12;;;;;;;10.48;3.83;;;11.30;99.90;;;;;;5032521;28;20182;-62
2021/03/29 03:34:38;;;;;;;5.05;3.97;;;11.30;99.90;;;;;;5032794;28;20623;-62
2021/03/29 03:37:06;;;;;;;5.45;4.13;;;11.30;1.00;;;;;;5037046;28;20253;-62
2021/03/29 03:39:32;;;;;;;10.40;4.70;;;11.30;1.00;;;;;;5037382;28;20177;-66
2021/03/29 03:41:58;;;;;;;8.43;4.53;;;11.30;68.70;;;;;;5037395;28;20251;-62
2021/03/29 03:44:24;;;;;;;5.95;4.03;;;11.40;1.00;;;;;;5037045;28;20847;-62
2021/03/29 03:46:51;;;;;;;11.25;4.00;;;11.40;60.10;;;;;;5037264;28;20178;-62
2021/03/29 03:49:22;;;;;;;4.30;3.90;;;11.30;99.90;;;;;;5037271;28;20256;-62
2021/03/29 03:51:49;;;;;;;5.85;4.22;;;11.30;99.90;;;;;;5037257;28;20202;-62
2021/03/29 03:54:18;;;;;;;7.90;3.92;;;11.30;99.90;;;;;;5036941;28;20718;-62
2021/03/29 03:56:44;;;;;;;7.60;3.80;;;11.40;99.90;;;;;;5037167;28;20210;-62
2021/03/29 03:59:12;;;;;;;9.13;3.90;;;11.40;99.90;;;;;;5037119;28;20182;-62
2021/03/29 04:02:06;;;;;;;10.10;3.83;;;11.40;99.90;;;;;;5037007;28;20245;-62
2021/03/29 04:04:33;;;;;;;4.75;3.25;;;11.40;1.00;;;;;;5036636;28;20197;-62
2021/03/29 04:06:59;;;;;;;6.35;3.70;;;11.20;1.00;;;;;;5036685;28;20197;-62
2021/03/29 04:12:08;;;;;;;4.80;3.53;;;11.30;1.00;;;;;;5036998;28;20177;-62
2021/03/29 04:14:34;;;;;;;4.50;3.05;;;11.40;1.00;;;;;;5036673;28;20174;-62
2021/03/29 04:16:59;;;;;;;7.70;4.27;;;11.50;1.00;;;;;;5036549;28;20204;-62
2021/03/29 04:19:25;;;;;;;5.00;3.30;;;11.40;99.90;;;;;;5036620;28;20686;-62
2021/03/29 04:21:50;;;;;;;4.13;3.00;;;11.40;99.90;;;;;;5036622;28;20607;-62
2021/03/29 04:24:17;;;;;;;7.00;3.20;;;11.40;99.90;;;;;;5036144;28;20499;-62
2021/03/29 04:26:43;;;;;;;6.80;3.60;;;11.40;99.90;;;;;;5036576;28;20174;-62
2021/03/29 04:29:09;;;;;;;7.70;3.60;;;11.40;99.90;;;;;;5035574;28;20182;-62
2021/03/29 04:31:34;;;;;;;13.10;4.57;;;11.50;99.90;;;;;;5036512;28;20193;-62
2021/03/29 04:34:00;;;;;;;12.70;5.27;;;11.60;54.30;;;;;;5036064;28;20182;-62
2021/03/29 04:36:25;;;;;;;6.10;4.53;;;11.60;75.40;;;;;;5036383;28;20197;-62
2021/03/29 04:38:51;;;;;;;10.40;4.83;;;11.50;17.20;;;;;;5036327;28;20183;-62
2021/03/29 04:41:16;;;;;;;5.40;3.20;;;11.50;40.00;;;;;;5036437;28;20193;-62
2021/03/29 04:43:42;;;;;;;7.77;3.43;;;11.60;73.50;;;;;;5035258;28;20210;-61
2021/03/29 04:46:07;;;;;;;5.50;3.10;;;11.40;99.90;;;;;;5036378;28;20247;-61
2021/03/29 04:48:33;;;;;;;6.27;4.40;;;11.40;99.90;;;;;;5034658;28;20566;-61
2021/03/29 04:50:59;;;;;;;4.47;3.43;;;11.40;99.90;;;;;;5036205;28;20273;-61
2021/03/29 04:53:24;;;;;;;6.20;3.27;;;11.40;1.00;;;;;;5034926;28;20193;-61
2021/03/29 04:55:50;;;;;;;7.43;2.80;;;11.40;1.00;;;;;;5035871;28;20185;-61
2021/03/29 04:58:15;;;;;;;8.50;3.50;;;11.30;1.00;;;;;;5036055;28;20607;-61
2021/03/29 05:00:41;;;;;;;7.20;3.20;;;11.50;1.00;;;;;;5036091;28;20182;-61
2021/03/29 05:03:06;;;;;;;7.43;3.40;;;11.30;1.00;;;;;;5035580;28;20298;-61
2021/03/29 05:05:32;;;;;;;11.27;4.00;;;11.30;1.00;;;;;;5035883;28;20206;-61
2021/03/29 05:07:57;;;;;;;7.63;3.07;;;11.50;1.00;;;;;;5035885;28;20638;-62
2021/03/29 05:10:23;;;;;;;6.90;3.87;;;11.50;99.90;;;;;;5035858;28;20629;-61
2021/03/29 05:12:49;;;;;;;5.63;2.73;;;11.60;99.90;;;;;;5035691;28;20564;-61
2021/03/29 05:15:14;;;;;;;8.20;3.07;;;11.70;99.90;;;;;;5035860;28;20189;-62
2021/03/29 05:17:40;;;;;;;5.30;3.07;;;11.60;99.90;;;;;;5035037;28;20611;-61
2021/03/29 05:20:09;;;;;;;6.83;2.97;;;11.60;99.90;;;;;;5035634;28;20193;-61
2021/03/29 05:22:34;;;;;;;7.10;3.00;;;11.60;98.40;;;;;;5035860;28;20216;-65
2021/03/29 05:25:00;;;;;;;10.77;3.77;;;11.70;94.10;;;;;;5035663;28;20181;-66
2021/03/29 05:27:26;;;;;;;6.07;3.17;;;11.60;1.00;;;;;;5035516;28;20175;-66
2021/03/29 05:29:52;;;;;;;5.00;2.60;;;11.60;1.00;;;;;;5031473;28;20524;-65
2021/03/29 05:32:23;;;;;;;5.50;2.78;;;11.60;1.00;;;;;;5026771;28;20186;-65
2021/03/29 05:34:51;;;;;;;5.88;2.47;;;11.60;1.00;;;;;;5029739;28;20186;-66
2021/03/29 05:37:18;;;;;;;10.40;2.92;;;11.70;1.00;;;;;;5034944;28;20264;-65
2021/03/29 05:39:52;;;;;;;7.63;2.90;;;11.60;1.00;;;;;;5035275;28;20174;-65
2021/03/29 05:42:19;;;;;;;5.50;3.10;;;11.60;1.00;;;;;;5035029;28;20624;-66
2021/03/29 05:44:45;;;;;;;7.88;3.20;;;11.70;1.00;;;;;;5034982;28;20564;-66
2021/03/29 05:47:11;;;;;;;9.80;3.17;;;11.80;1.00;;;;;;5035018;28;20212;-66
2021/03/29 05:49:37;;;;;;;4.90;3.30;;;11.80;1.00;;;;;;5035115;28;20178;-65
2021/03/29 05:52:04;;;;;;;5.67;3.50;;;11.70;1.00;;;;;;5034985;28;20178;-65
2021/03/29 05:54:30;;;;;;;8.35;3.50;;;11.70;1.00;;;;;;5034556;28;20204;-65
2021/03/29 05:56:56;;;;;;;5.75;2.65;;;11.80;1.00;;;;;;5034945;28;20185;-65
2021/03/29 05:59:26;;;;;;;6.22;3.03;;;11.90;99.90;;;;;;5033808;28;20194;-66
2021/03/29 06:01:56;;;;;;;8.90;2.50;;;12.20;99.90;;;;;;5034717;28;20174;-66
2021/03/29 06:04:45;;;;;;;6.90;2.20;;;12.10;99.90;;;;;;5034358;28;20267;-65
2021/03/29 06:07:20;;;;;;;6.03;3.38;;;12.20;99.90;;;;;;5034629;28;20281;-65
2021/03/29 06:09:47;;;;;;;8.30;3.40;;;12.10;99.90;;;;;;5033881;28;20181;-65
2021/03/29 06:12:17;;;;;;;4.43;1.90;;;12.20;99.90;;;;;;5034377;28;20186;-65
2021/03/29 06:14:44;;;;;;;5.60;2.40;;;12.20;99.90;;;;;;5034584;28;20174;-66
2021/03/29 06:17:14;;;;;;;9.23;4.00;;;12.20;99.90;;;;;;5034781;28;20189;-66
2021/03/29 06:19:40;;;;;;;6.35;3.40;;;12.20;99.90;;;;;;5034420;28;20229;-66
2021/03/29 06:22:14;;;;;;;9.73;3.90;;;12.00;99.90;;;;;;5034268;28;20504;-65
2021/03/29 06:24:52;;;;;;;4.00;2.92;;;12.10;99.90;;;;;;5033943;28;20205;-61
2021/03/29 06:27:19;;;;;;;5.85;2.40;;;12.00;99.90;;;;;;5034228;28;20262;-65
2021/03/29 06:29:45;;;;;;;5.43;2.28;;;12.10;99.90;;;;;;5034411;28;20181;-65
2021/03/29 06:32:11;;;;;;;6.57;3.80;;;12.20;99.90;;;;;;5034007;28;20234;-65
2021/03/29 06:34:36;;;;;;;10.73;3.80;;;12.20;99.90;;;;;;5033968;28;20213;-61
2021/03/29 06:37:06;;;;;;;16.83;3.63;;;12.40;99.90;;;;;;5034210;28;20194;-61
2021/03/29 06:39:36;;;;;;;6.45;4.13;;;12.70;1.00;;;;;;5034310;28;20181;-65
2021/03/29 06:42:03;;;;;;;7.80;2.85;;;12.90;1.00;;;;;;5034509;28;20204;-65
2021/03/29 06:44:31;;;;;;;13.63;4.05;;;13.10;1.00;;;;;;5033440;28;20360;-61
2021/03/29 06:47:14;;;;;;;11.25;3.50;;;13.20;1.00;;;;;;5037099;28;20175;-62
2021/03/29 06:49:49;;;;;;;9.48;2.90;;;13.40;1.00;;;;;;5046190;28;20187;-67
2021/03/29 06:52:29;;;;;;;6.60;3.08;;;13.60;1.00;;;;;;5035028;28;20186;-66
2021/03/29 06:55:15;;;;;;;10.80;4.60;;;13.50;1.00;;;;;;5031636;28;20616;-68
2021/03/29 06:57:40;;;;;;;6.50;2.90;;;13.60;1.00;;;;;;5033990;28;20222;-65
2021/03/29 07:00:11;;;;;;;7.07;3.07;;;13.50;1.00;;;;;;5033821;28;20543;-64
2021/03/29 07:02:41;;;;;;;5.82;3.42;;;13.60;1.00;;;;;;5052510;28;20208;-68
2021/03/29 07:05:08;;;;;;;8.80;3.20;;;13.60;1.00;;;;;;5053689;28;20182;-68
2021/03/29 07:07:36;;;;;;;7.40;3.10;;;14.00;1.00;;;;;;5047211;28;20230;-66
2021/03/29 07:10:02;;;;;;;6.53;2.70;;;14.30;99.90;;;;;;5033680;28;20600;-65
2021/03/29 07:12:38;;;;;;;8.45;3.63;;;14.30;99.90;;;;;;5034683;28;20186;-66
2021/03/29 07:15:07;;;;;;;5.97;3.50;;;13.90;1.00;;;;;;5034072;28;20175;-66
2021/03/29 07:17:36;;;;;;;4.57;3.40;;;13.80;1.00;;;;;;5036708;28;20262;-66
2021/03/29 07:20:07;;;;;;;3.60;2.80;;;13.50;1.00;;;;;;5032373;28;20232;-67
2021/03/29 07:22:38;;;;;;;5.22;2.67;;;13.40;1.00;;;;;;5034239;28;20183;-68
2021/03/29 07:25:12;;;;;;;8.25;3.42;;;13.80;1.00;;;;;;5034632;28;20187;-65
2021/03/29 07:27:48;;;;;;;5.25;2.72;;;13.90;1.00;;;;;;5033599;28;20202;-65
2021/03/29 07:30:16;;;;;;;7.15;3.20;;;13.80;1.00;;;;;;5033798;28;20616;-65
2021/03/29 07:32:53;;;;;;;11.57;3.50;;;13.80;1.00;;;;;;5033866;28;20517;-70
2021/03/29 07:35:21;;;;;;;6.55;3.55;;;14.00;99.90;;;;;;5032066;28;20645;-65
2021/03/29 07:37:57;;;;;;;4.80;2.80;;;14.20;99.90;;;;;;5033605;28;20187;-67
2021/03/29 07:40:23;;;;;;;7.20;3.10;;;14.20;99.90;;;;;;5033937;28;20178;-66
2021/03/29 07:42:51;;;;;;;6.40;3.20;;;14.00;99.90;;;;;;5033595;28;20213;-67
2021/03/29 07:45:24;;;;;;;12.95;3.80;;;13.80;1.00;;;;;;5032214;28;20325;-67
2021/03/29 07:47:50;;;;;;;8.38;3.70;;;13.80;1.00;;;;;;5034192;28;20186;-67
2021/03/29 07:50:25;;;;;;;8.00;3.47;;;13.80;1.00;;;;;;5033392;28;20202;-67
2021/03/29 07:52:53;;;;;;;5.57;3.22;;;14.00;1.00;;;;;;5036353;28;20456;-67
2021/03/29 07:55:30;;;;;;;7.00;3.50;;;14.20;99.90;;;;;;5033213;28;20633;-68
2021/03/29 07:57:55;;;;;;;5.80;4.03;;;13.90;99.90;;;;;;5032912;28;20197;-64
2021/03/29 08:00:24;;;;;;;4.80;3.03;;;13.90;1.00;;;;;;5032084;28;20181;-64
2021/03/29 08:03:11;;;;;;;6.95;2.70;;;13.60;1.00;;;;;;5032758;28;20208;-62
2021/03/29 08:05:40;;;;;;;10.43;3.35;;;13.70;1.00;;;;;;5032350;28;20174;-65
2021/03/29 08:08:24;;;;;;;7.65;3.22;;;13.90;1.00;;;;;;5033740;28;20349;-67
2021/03/29 08:11:02;;;;;;;6.82;3.10;;;14.00;1.00;;;;;;5034271;28;20175;-63
2021/03/29 08:13:53;;;;;;;4.63;2.75;;;14.10;1.00;;;;;;5033516;28;20236;-64
2021/03/29 08:16:22;;;;;;;6.47;3.15;;;14.20;1.00;;;;;;5031308;28;20248;-67
2021/03/29 08:19:25;;;;;;;6.82;3.15;;;14.20;1.00;;;;;;5034329;28;20204;-67
2021/03/29 08:21:53;;;;;;;6.97;3.58;;;14.00;1.00;;;;;;5034611;28;20235;-68
2021/03/29 08:24:26;;;;;;;10.25;3.50;;;13.90;1.00;;;;;;5037241;28;20201;-63
2021/03/29 08:26:54;;;;;;;7.15;3.25;;;13.80;1.00;;;;;;5033539;28;20186;-60
2021/03/29 08:29:29;;;;;;;7.00;3.55;;;14.00;1.00;;;;;;5036223;28;20190;-62
2021/03/29 08:32:09;;;;;;;3.50;3.20;;;14.20;1.00;;;;;;5031362;28;20245;-59
2021/03/29 08:39:45;;;;;;;11.57;3.78;;;14.10;1.00;;;;;;5015000;28;20224;-62
2021/03/29 08:42:11;;;;;;;9.10;4.35;;;14.30;1.00;;;;;;5014491;28;20189;-66
2021/03/29 08:44:43;;;;;;;10.30;3.53;;;14.50;1.00;;;;;;5013577;28;20428;-65
2021/03/29 08:47:11;;;;;;;4.97;3.20;;;14.60;1.00;;;;;;5015921;28;20624;-59
2021/03/29 08:49:37;;;;;;;6.00;3.20;;;14.60;1.00;;;;;;5016134;28;20200;-61
2021/03/29 08:52:04;;;;;;;3.75;2.90;;;14.50;99.90;;;;;;5016378;28;20175;-65
2021/03/29 08:54:29;;;;;;;6.78;4.13;;;14.40;1.00;;;;;;5016515;28;20240;-65
2021/03/29 08:57:02;;;;;;;7.73;4.17;;;14.60;1.00;;;;;;5015952;28;20187;-65
2021/03/29 08:59:28;;;;;;;5.93;4.07;;;14.90;99.90;;;;;;5015556;28;20192;-65
2021/03/29 09:01:54;;;;;;;11.13;4.20;;;14.80;99.90;;;;;;5016687;28;20269;-61
2021/03/29 09:04:19;;;;;;;10.57;4.00;;;14.80;99.90;;;;;;5014871;28;20634;-60
2021/03/29 09:06:45;;;;;;;7.80;3.63;;;14.90;99.90;;;;;;5032233;28;20175;-62
2021/03/29 09:09:11;;;;;;;8.87;4.07;;;15.10;99.90;;;;;;5017338;28;20177;-65
2021/03/29 09:11:46;;;;;;;5.82;3.70;;;15.10;99.90;;;;;;5017815;28;20474;-66
2021/03/29 09:14:14;;;;;;;8.68;3.70;;;14.90;99.90;;;;;;5016208;28;20195;-65
2021/03/29 09:16:40;;;;;;;7.97;3.33;;;15.30;99.90;;;;;;5014579;28;20260;-64
2021/03/29 09:19:18;;;;;;;5.63;3.47;;;15.40;99.90;;;;;;5016061;28;20277;-65
2021/03/29 09:21:51;;;;;;;5.85;3.25;;;15.60;99.90;;;;;;5031254;28;20527;-63
2021/03/29 09:24:25;;;;;;;7.85;3.75;;;15.60;99.90;;;;;;5015819;28;20195;-63
2021/03/29 09:27:05;;;;;;;7.72;3.55;;;16.00;99.90;;;;;;5016509;28;20207;-64
2021/03/29 09:29:38;;;;;;;8.65;3.75;;;16.20;99.90;;;;;;5016920;28;20200;-64
2021/03/29 09:32:25;;;;;;;6.13;3.65;;;16.30;99.90;;;;;;5015921;28;20518;-63
2021/03/29 09:34:52;;;;;;;5.85;3.17;;;16.90;92.20;;;;;;5015247;28;20269;-60
2021/03/29 09:37:28;;;;;;;6.97;4.00;;;16.80;7.20;;;;;;5015657;28;20182;-62
2021/03/29 09:40:05;;;;;;;6.33;4.00;;;16.50;64.10;;;;;;5014495;28;20194;-60
2021/03/29 09:42:34;;;;;;;6.73;3.40;;;16.60;36.20;;;;;;5015568;28;20484;-61
2021/03/29 09:45:00;;;;;;;8.47;3.70;;;16.50;93.50;;;;;;5015552;28;20777;-64
2021/03/29 09:47:28;;;;;;;5.67;3.20;;;16.50;61.60;;;;;;5015862;28;20467;-62
2021/03/29 09:49:53;;;;;;;4.40;3.10;;;16.70;62.60;;;;;;5015795;28;20506;-64
2021/03/29 09:52:19;;;;;;;6.20;3.40;;;16.40;85.10;;;;;;5015516;28;20178;-67
2021/03/29 09:54:47;;;;;;;6.27;4.03;;;16.70;77.10;;;;;;5015614;28;20204;-67
2021/03/29 09:57:20;;;;;;;7.43;4.30;;;17.30;28.10;;;;;;5015394;28;20174;-66
2021/03/29 09:59:45;;;;;;;8.20;4.33;;;17.50;1.00;;;;;;5015062;28;20483;-62
2021/03/29 10:02:13;;;;;;;5.00;3.33;;;17.10;1.00;;;;;;5015148;28;20440;-62
2021/03/29 10:04:40;;;;;;;5.50;4.17;;;17.00;28.00;;;;;;5030008;28;20213;-67
2021/03/29 10:07:15;;;;;;;6.45;4.60;;;17.20;29.80;;;;;;5014757;28;20460;-67
2021/03/29 10:09:46;;;;;;;6.30;3.50;;;17.30;15.70;;;;;;5014632;28;20198;-62
2021/03/29 10:12:22;;;;;;;8.90;4.30;;;17.10;29.70;;;;;;5014875;28;20432;-63
2021/03/29 10:14:48;;;;;;;9.80;3.90;;;17.00;62.10;;;;;;4994935;28;20527;-64
2021/03/29 10:17:19;;;;;;;7.90;3.70;;;16.80;99.70;;;;;;4995116;28;20485;-63
2021/03/29 10:19:45;;;;;;;6.17;4.20;;;16.60;99.90;;;;;;4995136;28;20248;-63
2021/03/29 10:22:16;;;;;;;5.80;3.50;;;16.50;99.90;;;;;;4995638;28;20882;-62
2021/03/29 10:25:19;;;;;;;6.80;3.70;;;16.60;99.90;;;;;;4998508;28;20559;-63
2021/03/29 10:27:55;;;;;;;8.73;4.07;;;16.50;99.90;;;;;;5014701;28;20764;-63
2021/03/29 10:30:31;;;;;;;7.33;3.73;;;16.70;99.90;;;;;;5015052;28;20519;-63
2021/03/29 10:33:04;;;;;;;9.20;3.90;;;16.90;99.90;;;;;;5013863;28;20441;-62
2021/03/29 10:35:31;;;;;;;8.33;4.13;;;17.20;99.90;;;;;;5012776;28;20487;-67
2021/03/29 10:38:03;;;;;;;4.03;3.13;;;16.80;99.90;;;;;;5013244;28;20792;-66
2021/03/29 10:40:29;;;;;;;5.80;3.90;;;16.30;99.90;;;;;;5021082;28;20524;-62
2021/03/29 10:42:55;;;;;;;7.65;4.30;;;16.20;99.90;;;;;;5011901;28;20461;-61
2021/03/29 10:45:21;;;;;;;7.17;4.33;;;16.30;99.90;;;;;;5011370;28;20178;-61
2021/03/29 10:47:47;;;;;;;6.23;3.40;;;16.30;99.90;;;;;;5007460;28;20190;-65
2021/03/29 10:50:19;;;;;;;9.47;3.97;;;16.50;99.90;;;;;;5016444;28;20612;-63
2021/03/29 10:52:45;;;;;;;7.80;3.80;;;16.60;99.90;;;;;;5022885;28;20432;-64
2021/03/29 10:55:11;;;;;;;6.03;3.70;;;16.60;99.90;;;;;;5026972;28;20443;-63
2021/03/29 10:57:37;;;;;;;7.37;4.00;;;16.80;99.90;;;;;;5020536;28;20183;-62
2021/03/29 11:00:07;;;;;;;8.87;4.17;;;16.90;99.90;;;;;;5022382;28;21059;-65
2021/03/29 11:02:33;;;;;;;9.30;4.23;;;16.80;99.90;;;;;;5014348;28;20189;-63
2021/03/29 11:04:58;;;;;;;4.60;3.80;;;16.90;99.90;;;;;;5014233;28;20430;-67
2021/03/29 11:07:24;;;;;;;5.00;3.77;;;16.80;99.90;;;;;;5014039;28;20602;-64
2021/03/29 11:09:49;;;;;;;6.77;3.90;;;16.90;99.90;;;;;;5014415;28;20178;-63
2021/03/29 11:12:15;;;;;;;7.97;4.27;;;17.00;99.90;;;;;;5014063;28;20260;-65
2021/03/29 11:14:41;;;;;;;8.63;4.97;;;16.80;99.90;;;;;;5013258;28;20197;-66
2021/03/29 11:17:08;;;;;;;10.00;5.00;;;16.90;99.90;;;;;;5014117;28;20269;-63
2021/03/29 11:19:34;;;;;;;7.87;4.83;;;17.10;99.90;;;;;;5029072;28;20190;-63
2021/03/29 11:21:59;;;;;;;8.20;4.30;;;17.10;99.90;;;;;;5014435;28;20432;-63
2021/03/29 11:24:25;;;;;;;5.67;4.60;;;17.20;99.90;;;;;;5013893;28;20229;-65
2021/03/29 11:26:51;;;;;;;9.07;4.57;;;17.30;99.90;;;;;;5014288;28;20191;-64
2021/03/29 11:29:17;;;;;;;6.10;4.40;;;17.50;99.90;;;;;;5014199;28;20279;-64
2021/03/29 11:31:43;;;;;;;7.83;4.13;;;17.40;99.90;;;;;;5014052;28;20215;-66
2021/03/29 11:34:11;;;;;;;6.63;4.67;;;17.30;99.90;;;;;;5012986;28;20445;-69
2021/03/29 11:36:38;;;;;;;5.67;4.40;;;17.30;99.90;;;;;;5020332;28;20448;-65
2021/03/29 11:39:06;;;;;;;9.93;5.33;;;17.50;99.90;;;;;;5022534;28;20474;-66
2021/03/29 11:41:33;;;;;;;7.23;5.33;;;17.60;99.90;;;;;;5019567;28;20449;-61
2021/03/29 11:43:58;;;;;;;7.10;4.67;;;17.60;99.90;;;;;;5021675;28;20470;-63
2021/03/29 11:46:24;;;;;;;7.20;4.47;;;17.60;99.90;;;;;;5007965;28;20441;-65
2021/03/29 11:48:49;;;;;;;8.40;5.07;;;17.60;99.90;;;;;;5028818;28;20186;-64
2021/03/29 11:51:15;;;;;;;8.60;4.80;;;17.60;99.90;;;;;;5013769;28;20220;-66
2021/03/29 11:53:41;;;;;;;8.80;4.77;;;17.60;99.90;;;;;;5012389;28;20187;-65
2021/03/29 11:56:06;;;;;;;10.97;5.60;;;17.70;99.90;;;;;;5015901;28;20190;-64
2021/03/29 11:58:32;;;;;;;6.80;4.80;;;17.80;99.90;;;;;;5027515;28;20610;-66
2021/03/29 12:01:03;;;;;;;6.60;4.97;;;17.80;99.90;;;;;;5033621;28;20193;-63
2021/03/29 12:03:47;;;;;;;8.13;5.40;;;17.70;99.90;;;;;;5016614;28;20203;-64
2021/03/29 12:06:20;;;;;;;8.07;4.30;;;17.80;99.90;;;;;;5017552;28;20417;-66
2021/03/29 12:08:55;;;;;;;7.63;5.30;;;17.90;99.90;;;;;;5018085;28;20767;-66
2021/03/29 12:14:09;;;;;;;6.80;4.50;;;17.80;99.90;;;;;;5016845;28;20924;-63
2021/03/29 12:16:40;;;;;;;6.07;4.50;;;17.90;99.90;;;;;;5016906;28;20428;-63
2021/03/29 12:19:05;;;;;;;4.80;4.37;;;17.80;99.90;;;;;;5031144;28;20189;-63
2021/03/29 12:21:36;;;;;;;10.93;5.70;;;17.90;99.90;;;;;;5016730;28;20760;-66
2021/03/29 12:24:07;;;;;;;8.87;5.50;;;18.20;99.90;;;;;;5016576;28;20604;-65
2021/03/29 12:26:34;;;;;;;6.90;4.80;;;18.30;99.90;;;;;;5015937;28;20422;-67
2021/03/29 12:29:00;;;;;;;10.37;5.70;;;18.40;99.90;;;;;;5015565;28;20521;-65
2021/03/29 12:31:26;;;;;;;6.07;4.57;;;18.50;99.90;;;;;;5023928;28;20424;-66
2021/03/29 12:33:54;;;;;;;7.40;4.90;;;18.60;99.90;;;;;;5026489;28;20455;-63
2021/03/29 12:36:21;;;;;;;5.50;4.63;;;18.80;99.90;;;;;;5028083;28;20516;-64
2021/03/29 12:38:59;;;;;;;6.17;4.50;;;18.90;99.90;;;;;;5016987;28;20897;-65
2021/03/29 12:41:25;;;;;;;9.93;4.87;;;18.90;99.90;;;;;;5016660;28;20495;-64
2021/03/29 12:44:00;;;;;;;5.97;4.50;;;18.80;99.90;;;;;;5015658;28;20537;-64
2021/03/29 12:46:26;;;;;;;7.50;4.90;;;18.60;99.90;;;;;;5021426;28;20519;-64
2021/03/29 12:48:52;;;;;;;8.10;4.90;;;18.80;99.90;;;;;;5027432;28;20554;-64
2021/03/29 12:51:18;;;;;;;8.47;4.57;;;19.10;99.90;;;;;;5034791;28;20603;-64
2021/03/29 12:53:44;;;;;;;5.60;4.40;;;19.30;95.10;;;;;;5015738;28;20515;-65
2021/03/29 12:56:10;;;;;;;9.57;4.63;;;19.30;95.00;;;;;;5031429;28;20198;-66
2021/03/29 12:58:38;;;;;;;7.70;5.00;;;19.30;99.90;;;;;;5015998;28;20828;-64
2021/03/29 13:01:05;;;;;;;6.43;4.63;;;19.30;99.90;;;;;;5027069;28;20886;-65
2021/03/29 13:03:35;;;;;;;5.37;4.40;;;19.30;97.40;;;;;;5023611;28;20536;-65
2021/03/29 13:06:23;;;;;;;7.13;4.40;;;19.30;99.90;;;;;;5015889;28;20433;-66
2021/03/29 13:08:49;;;;;;;11.03;4.73;;;19.30;99.90;;;;;;5015104;28;20425;-65